sensor_id;sensor_type;location;lat;lon;timestamp;P1;durP1;ratioP1;P2;durP2;ratioP2
73823;SDS011;62154;54.914;73.444;2022-11-11T00:00:09;19.65;;;10.80;;
73823;SDS011;62154;54.914;73.444;2022-11-11T00:05:46;25.10;;;11.85;;
73823;SDS011;62154;54.914;73.444;2022-11-11T00:08:36;23.73;;;11.88;;
73823;SDS011;62154;54.914;73.444;2022-11-11T00:11:22;25.58;;;12.00;;
73823;SDS011;62154;54.914;73.444;2022-11-11T00:14:13;23.48;;;12.13;;
73823;SDS011;62154;54.914;73.444;2022-11-11T00:17:11;25.23;;;13.30;;
73823;SDS011;62154;54.914;73.444;2022-11-11T00:20:16;24.08;;;12.50;;
73823;SDS011;62154;54.914;73.444;2022-11-11T00:23:26;31.17;;;12.75;;
73823;SDS011;62154;54.914;73.444;2022-11-11T00:26:30;25.35;;;12.57;;
73823;SDS011;62154;54.914;73.444;2022-11-11T00:29:22;24.75;;;12.32;;
73823;SDS011;62154;54.914;73.444;2022-11-11T00:32:12;24.92;;;12.23;;
73823;SDS011;62154;54.914;73.444;2022-11-11T00:35:07;19.13;;;10.80;;
73823;SDS011;62154;54.914;73.444;2022-11-11T00:38:12;22.08;;;10.80;;
73823;SDS011;62154;54.914;73.444;2022-11-11T00:41:25;21.70;;;11.07;;
73823;SDS011;62154;54.914;73.444;2022-11-11T00:44:11;31.08;;;16.85;;
73823;SDS011;62154;54.914;73.444;2022-11-11T00:47:07;41.38;;;23.00;;
73823;SDS011;62154;54.914;73.444;2022-11-11T00:50:16;33.13;;;18.17;;
73823;SDS011;62154;54.914;73.444;2022-11-11T00:53:29;31.35;;;17.77;;
73823;SDS011;62154;54.914;73.444;2022-11-11T00:56:21;57.17;;;29.92;;
73823;SDS011;62154;54.914;73.444;2022-11-11T00:59:07;72.40;;;33.40;;
73823;SDS011;62154;54.914;73.444;2022-11-11T01:01:53;30.10;;;17.40;;
73823;SDS011;62154;54.914;73.444;2022-11-11T01:04:49;28.90;;;14.98;;
73823;SDS011;62154;54.914;73.444;2022-11-11T01:07:34;28.55;;;15.77;;
73823;SDS011;62154;54.914;73.444;2022-11-11T01:13:25;22.77;;;12.43;;
73823;SDS011;62154;54.914;73.444;2022-11-11T01:16:20;23.10;;;13.48;;
73823;SDS011;62154;54.914;73.444;2022-11-11T01:19:08;24.48;;;12.82;;
73823;SDS011;62154;54.914;73.444;2022-11-11T01:21:54;29.65;;;16.45;;
73823;SDS011;62154;54.914;73.444;2022-11-11T01:24:39;22.25;;;12.18;;
73823;SDS011;62154;54.914;73.444;2022-11-11T01:27:25;24.23;;;14.15;;
73823;SDS011;62154;54.914;73.444;2022-11-11T01:32:58;21.65;;;12.43;;
73823;SDS011;62154;54.914;73.444;2022-11-11T01:35:44;24.80;;;11.85;;
73823;SDS011;62154;54.914;73.444;2022-11-11T01:38:30;27.80;;;13.82;;
73823;SDS011;62154;54.914;73.444;2022-11-11T01:41:16;28.63;;;13.75;;
73823;SDS011;62154;54.914;73.444;2022-11-11T01:44:18;24.02;;;14.15;;
73823;SDS011;62154;54.914;73.444;2022-11-11T01:47:28;27.05;;;13.98;;
73823;SDS011;62154;54.914;73.444;2022-11-11T01:50:35;30.25;;;15.57;;
73823;SDS011;62154;54.914;73.444;2022-11-11T01:53:30;22.90;;;12.32;;
73823;SDS011;62154;54.914;73.444;2022-11-11T01:56:27;26.88;;;15.23;;
73823;SDS011;62154;54.914;73.444;2022-11-11T01:59:13;26.23;;;14.27;;
73823;SDS011;62154;54.914;73.444;2022-11-11T02:02:06;24.80;;;13.65;;
73823;SDS011;62154;54.914;73.444;2022-11-11T02:05:14;26.38;;;13.85;;
73823;SDS011;62154;54.914;73.444;2022-11-11T02:08:21;28.77;;;15.23;;
73823;SDS011;62154;54.914;73.444;2022-11-11T02:11:23;26.23;;;15.77;;
73823;SDS011;62154;54.914;73.444;2022-11-11T02:14:28;34.55;;;16.10;;
73823;SDS011;62154;54.914;73.444;2022-11-11T02:17:20;29.58;;;14.75;;
73823;SDS011;62154;54.914;73.444;2022-11-11T02:20:08;29.70;;;15.32;;
73823;SDS011;62154;54.914;73.444;2022-11-11T02:26:06;67.30;;;30.58;;
73823;SDS011;62154;54.914;73.444;2022-11-11T02:28:55;40.83;;;18.52;;
73823;SDS011;62154;54.914;73.444;2022-11-11T02:31:43;37.35;;;21.90;;
73823;SDS011;62154;54.914;73.444;2022-11-11T02:34:32;27.58;;;16.35;;
73823;SDS011;62154;54.914;73.444;2022-11-11T02:37:20;28.73;;;16.00;;
73823;SDS011;62154;54.914;73.444;2022-11-11T02:40:08;31.15;;;15.30;;
73823;SDS011;62154;54.914;73.444;2022-11-11T02:42:57;36.40;;;18.23;;
73823;SDS011;62154;54.914;73.444;2022-11-11T02:45:43;43.38;;;19.30;;
73823;SDS011;62154;54.914;73.444;2022-11-11T02:48:29;41.63;;;19.42;;
73823;SDS011;62154;54.914;73.444;2022-11-11T02:51:15;49.65;;;24.67;;
73823;SDS011;62154;54.914;73.444;2022-11-11T02:54:01;42.38;;;18.63;;
73823;SDS011;62154;54.914;73.444;2022-11-11T02:56:53;37.28;;;19.10;;
73823;SDS011;62154;54.914;73.444;2022-11-11T02:59:50;41.42;;;17.08;;
73823;SDS011;62154;54.914;73.444;2022-11-11T03:02:36;34.13;;;16.73;;
73823;SDS011;62154;54.914;73.444;2022-11-11T03:05:22;40.88;;;18.40;;
73823;SDS011;62154;54.914;73.444;2022-11-11T03:08:10;37.30;;;17.35;;
73823;SDS011;62154;54.914;73.444;2022-11-11T03:10:56;45.83;;;19.85;;
73823;SDS011;62154;54.914;73.444;2022-11-11T03:13:41;38.47;;;17.17;;
73823;SDS011;62154;54.914;73.444;2022-11-11T03:16:26;35.58;;;15.63;;
73823;SDS011;62154;54.914;73.444;2022-11-11T03:19:34;41.25;;;17.02;;
73823;SDS011;62154;54.914;73.444;2022-11-11T03:22:19;35.88;;;16.00;;
73823;SDS011;62154;54.914;73.444;2022-11-11T03:25:09;43.92;;;19.25;;
73823;SDS011;62154;54.914;73.444;2022-11-11T03:28:14;36.33;;;17.08;;
73823;SDS011;62154;54.914;73.444;2022-11-11T03:31:03;49.53;;;21.33;;
73823;SDS011;62154;54.914;73.444;2022-11-11T03:33:48;47.10;;;20.10;;
73823;SDS011;62154;54.914;73.444;2022-11-11T03:36:40;44.42;;;19.70;;
73823;SDS011;62154;54.914;73.444;2022-11-11T03:39:48;54.17;;;21.13;;
73823;SDS011;62154;54.914;73.444;2022-11-11T03:42:34;66.22;;;34.25;;
73823;SDS011;62154;54.914;73.444;2022-11-11T03:45:21;39.28;;;18.92;;
73823;SDS011;62154;54.914;73.444;2022-11-11T03:48:06;47.42;;;19.15;;
73823;SDS011;62154;54.914;73.444;2022-11-11T03:50:52;50.10;;;24.00;;
73823;SDS011;62154;54.914;73.444;2022-11-11T03:53:40;50.85;;;23.75;;
73823;SDS011;62154;54.914;73.444;2022-11-11T03:56:26;50.78;;;26.77;;
73823;SDS011;62154;54.914;73.444;2022-11-11T03:59:11;62.65;;;27.02;;
73823;SDS011;62154;54.914;73.444;2022-11-11T04:02:11;42.38;;;20.88;;
73823;SDS011;62154;54.914;73.444;2022-11-11T04:05:15;43.17;;;21.58;;
73823;SDS011;62154;54.914;73.444;2022-11-11T04:08:20;37.35;;;20.83;;
73823;SDS011;62154;54.914;73.444;2022-11-11T04:14:21;46.22;;;24.45;;
73823;SDS011;62154;54.914;73.444;2022-11-11T04:17:35;42.60;;;19.80;;
73823;SDS011;62154;54.914;73.444;2022-11-11T04:20:21;36.75;;;20.25;;
73823;SDS011;62154;54.914;73.444;2022-11-11T04:23:35;44.10;;;22.90;;
73823;SDS011;62154;54.914;73.444;2022-11-11T04:26:20;37.63;;;18.48;;
73823;SDS011;62154;54.914;73.444;2022-11-11T04:29:08;47.40;;;21.33;;
73823;SDS011;62154;54.914;73.444;2022-11-11T04:32:12;42.22;;;20.23;;
73823;SDS011;62154;54.914;73.444;2022-11-11T04:35:18;36.80;;;17.23;;
73823;SDS011;62154;54.914;73.444;2022-11-11T04:38:04;41.50;;;19.33;;
73823;SDS011;62154;54.914;73.444;2022-11-11T04:41:08;34.08;;;16.98;;
73823;SDS011;62154;54.914;73.444;2022-11-11T04:43:56;34.95;;;17.88;;
73823;SDS011;62154;54.914;73.444;2022-11-11T04:47:01;36.03;;;18.75;;
73823;SDS011;62154;54.914;73.444;2022-11-11T04:49:47;37.42;;;19.67;;
73823;SDS011;62154;54.914;73.444;2022-11-11T04:52:33;39.25;;;18.75;;
73823;SDS011;62154;54.914;73.444;2022-11-11T04:55:18;33.35;;;17.15;;
73823;SDS011;62154;54.914;73.444;2022-11-11T04:58:26;33.95;;;16.35;;
73823;SDS011;62154;54.914;73.444;2022-11-11T05:01:14;36.70;;;15.57;;
73823;SDS011;62154;54.914;73.444;2022-11-11T05:04:22;39.13;;;19.40;;
73823;SDS011;62154;54.914;73.444;2022-11-11T05:07:07;32.35;;;16.75;;
73823;SDS011;62154;54.914;73.444;2022-11-11T05:10:21;33.00;;;16.92;;
73823;SDS011;62154;54.914;73.444;2022-11-11T05:13:07;38.20;;;18.67;;
73823;SDS011;62154;54.914;73.444;2022-11-11T05:16:18;39.40;;;19.27;;
73823;SDS011;62154;54.914;73.444;2022-11-11T05:19:35;40.25;;;19.75;;
73823;SDS011;62154;54.914;73.444;2022-11-11T05:22:40;41.60;;;22.35;;
73823;SDS011;62154;54.914;73.444;2022-11-11T05:25:27;33.38;;;19.13;;
73823;SDS011;62154;54.914;73.444;2022-11-11T05:28:25;32.10;;;17.85;;
73823;SDS011;62154;54.914;73.444;2022-11-11T05:31:10;47.13;;;20.60;;
73823;SDS011;62154;54.914;73.444;2022-11-11T05:33:57;38.20;;;18.10;;
73823;SDS011;62154;54.914;73.444;2022-11-11T05:36:42;34.95;;;18.90;;
73823;SDS011;62154;54.914;73.444;2022-11-11T05:39:28;42.55;;;20.00;;
73823;SDS011;62154;54.914;73.444;2022-11-11T05:42:20;36.95;;;18.75;;
73823;SDS011;62154;54.914;73.444;2022-11-11T05:45:06;30.40;;;15.90;;
73823;SDS011;62154;54.914;73.444;2022-11-11T05:48:03;31.95;;;16.38;;
73823;SDS011;62154;54.914;73.444;2022-11-11T05:50:49;38.88;;;17.35;;
73823;SDS011;62154;54.914;73.444;2022-11-11T05:53:35;36.00;;;17.40;;
73823;SDS011;62154;54.914;73.444;2022-11-11T05:56:21;39.97;;;20.52;;
73823;SDS011;62154;54.914;73.444;2022-11-11T05:59:07;37.72;;;19.63;;
73823;SDS011;62154;54.914;73.444;2022-11-11T06:01:54;46.70;;;22.25;;
73823;SDS011;62154;54.914;73.444;2022-11-11T06:07:25;27.92;;;14.02;;
73823;SDS011;62154;54.914;73.444;2022-11-11T06:10:10;31.35;;;14.93;;
73823;SDS011;62154;54.914;73.444;2022-11-11T06:13:14;36.20;;;15.43;;
73823;SDS011;62154;54.914;73.444;2022-11-11T06:18:56;26.00;;;13.73;;
73823;SDS011;62154;54.914;73.444;2022-11-11T06:21:48;35.25;;;14.43;;
73823;SDS011;62154;54.914;73.444;2022-11-11T06:24:45;31.52;;;15.40;;
73823;SDS011;62154;54.914;73.444;2022-11-11T06:27:55;32.08;;;16.65;;
73823;SDS011;62154;54.914;73.444;2022-11-11T06:30:46;28.40;;;14.98;;
73823;SDS011;62154;54.914;73.444;2022-11-11T06:33:33;34.10;;;15.60;;
73823;SDS011;62154;54.914;73.444;2022-11-11T06:36:30;135.65;;;49.80;;
73823;SDS011;62154;54.914;73.444;2022-11-11T06:39:15;42.38;;;17.80;;
73823;SDS011;62154;54.914;73.444;2022-11-11T06:42:01;30.00;;;14.38;;
73823;SDS011;62154;54.914;73.444;2022-11-11T06:44:52;24.52;;;14.07;;
73823;SDS011;62154;54.914;73.444;2022-11-11T06:47:37;28.85;;;16.38;;
73823;SDS011;62154;54.914;73.444;2022-11-11T06:50:28;25.17;;;15.38;;
73823;SDS011;62154;54.914;73.444;2022-11-11T06:53:24;30.02;;;16.30;;
73823;SDS011;62154;54.914;73.444;2022-11-11T06:56:09;27.98;;;14.82;;
73823;SDS011;62154;54.914;73.444;2022-11-11T06:59:09;33.15;;;16.92;;
73823;SDS011;62154;54.914;73.444;2022-11-11T07:02:16;31.33;;;15.43;;
73823;SDS011;62154;54.914;73.444;2022-11-11T07:05:04;23.50;;;12.93;;
73823;SDS011;62154;54.914;73.444;2022-11-11T07:07:50;33.42;;;16.35;;
73823;SDS011;62154;54.914;73.444;2022-11-11T07:10:37;34.90;;;15.73;;
73823;SDS011;62154;54.914;73.444;2022-11-11T07:13:24;29.35;;;13.93;;
73823;SDS011;62154;54.914;73.444;2022-11-11T07:16:09;38.78;;;15.32;;
73823;SDS011;62154;54.914;73.444;2022-11-11T07:18:55;23.48;;;11.52;;
73823;SDS011;62154;54.914;73.444;2022-11-11T07:21:49;35.13;;;21.40;;
73823;SDS011;62154;54.914;73.444;2022-11-11T07:24:35;37.65;;;19.75;;
73823;SDS011;62154;54.914;73.444;2022-11-11T07:27:20;28.52;;;14.38;;
73823;SDS011;62154;54.914;73.444;2022-11-11T07:30:06;47.63;;;19.65;;
73823;SDS011;62154;54.914;73.444;2022-11-11T07:32:53;50.38;;;23.02;;
73823;SDS011;62154;54.914;73.444;2022-11-11T07:35:40;43.83;;;21.30;;
73823;SDS011;62154;54.914;73.444;2022-11-11T07:38:26;58.22;;;31.23;;
73823;SDS011;62154;54.914;73.444;2022-11-11T07:41:14;37.00;;;22.17;;
73823;SDS011;62154;54.914;73.444;2022-11-11T07:43:59;36.27;;;21.87;;
73823;SDS011;62154;54.914;73.444;2022-11-11T07:46:45;31.67;;;16.38;;
73823;SDS011;62154;54.914;73.444;2022-11-11T07:49:31;36.53;;;21.65;;
73823;SDS011;62154;54.914;73.444;2022-11-11T07:52:16;45.80;;;20.85;;
73823;SDS011;62154;54.914;73.444;2022-11-11T07:55:02;44.38;;;22.77;;
73823;SDS011;62154;54.914;73.444;2022-11-11T07:57:52;37.30;;;19.75;;
73823;SDS011;62154;54.914;73.444;2022-11-11T08:00:37;35.85;;;17.90;;
73823;SDS011;62154;54.914;73.444;2022-11-11T08:03:33;41.63;;;21.58;;
73823;SDS011;62154;54.914;73.444;2022-11-11T08:06:19;79.90;;;44.28;;
73823;SDS011;62154;54.914;73.444;2022-11-11T08:09:08;38.70;;;22.25;;
73823;SDS011;62154;54.914;73.444;2022-11-11T08:11:54;54.75;;;29.83;;
73823;SDS011;62154;54.914;73.444;2022-11-11T08:14:58;35.75;;;19.92;;
73823;SDS011;62154;54.914;73.444;2022-11-11T08:17:43;39.40;;;21.17;;
73823;SDS011;62154;54.914;73.444;2022-11-11T08:20:29;55.15;;;30.65;;
73823;SDS011;62154;54.914;73.444;2022-11-11T08:23:14;48.55;;;28.83;;
73823;SDS011;62154;54.914;73.444;2022-11-11T08:26:16;42.97;;;21.88;;
73823;SDS011;62154;54.914;73.444;2022-11-11T08:29:02;91.75;;;48.97;;
73823;SDS011;62154;54.914;73.444;2022-11-11T08:31:51;121.40;;;60.78;;
73823;SDS011;62154;54.914;73.444;2022-11-11T08:34:37;66.15;;;33.38;;
73823;SDS011;62154;54.914;73.444;2022-11-11T08:37:27;66.18;;;36.72;;
73823;SDS011;62154;54.914;73.444;2022-11-11T08:42:59;48.10;;;21.23;;
73823;SDS011;62154;54.914;73.444;2022-11-11T08:45:45;41.83;;;19.42;;
73823;SDS011;62154;54.914;73.444;2022-11-11T08:48:35;51.83;;;21.35;;
73823;SDS011;62154;54.914;73.444;2022-11-11T08:51:23;52.00;;;24.88;;
73823;SDS011;62154;54.914;73.444;2022-11-11T08:54:09;49.35;;;22.23;;
73823;SDS011;62154;54.914;73.444;2022-11-11T08:56:55;51.50;;;24.70;;
73823;SDS011;62154;54.914;73.444;2022-11-11T08:59:40;38.23;;;20.50;;
73823;SDS011;62154;54.914;73.444;2022-11-11T09:02:28;39.97;;;18.77;;
73823;SDS011;62154;54.914;73.444;2022-11-11T09:05:13;51.00;;;25.02;;
73823;SDS011;62154;54.914;73.444;2022-11-11T09:07:59;47.20;;;21.77;;
73823;SDS011;62154;54.914;73.444;2022-11-11T09:10:46;42.13;;;21.15;;
73823;SDS011;62154;54.914;73.444;2022-11-11T09:13:31;31.20;;;15.85;;
73823;SDS011;62154;54.914;73.444;2022-11-11T09:16:17;34.35;;;16.42;;
73823;SDS011;62154;54.914;73.444;2022-11-11T09:19:03;35.75;;;15.93;;
73823;SDS011;62154;54.914;73.444;2022-11-11T09:21:49;42.63;;;18.48;;
73823;SDS011;62154;54.914;73.444;2022-11-11T09:24:36;33.67;;;16.70;;
73823;SDS011;62154;54.914;73.444;2022-11-11T09:27:22;50.03;;;22.30;;
73823;SDS011;62154;54.914;73.444;2022-11-11T09:30:08;35.38;;;15.80;;
73823;SDS011;62154;54.914;73.444;2022-11-11T09:32:59;34.05;;;16.00;;
73823;SDS011;62154;54.914;73.444;2022-11-11T09:35:47;48.28;;;17.30;;
73823;SDS011;62154;54.914;73.444;2022-11-11T09:38:32;32.03;;;13.88;;
73823;SDS011;62154;54.914;73.444;2022-11-11T09:41:21;27.58;;;14.40;;
73823;SDS011;62154;54.914;73.444;2022-11-11T09:49:59;32.97;;;14.90;;
73823;SDS011;62154;54.914;73.444;2022-11-11T09:55:46;76.15;;;27.02;;
73823;SDS011;62154;54.914;73.444;2022-11-11T09:58:38;59.45;;;21.92;;
73823;SDS011;62154;54.914;73.444;2022-11-11T10:01:35;76.72;;;27.90;;
73823;SDS011;62154;54.914;73.444;2022-11-11T10:07:25;52.47;;;23.15;;
73823;SDS011;62154;54.914;73.444;2022-11-11T10:19:33;34.15;;;15.27;;
73823;SDS011;62154;54.914;73.444;2022-11-11T10:22:34;35.45;;;17.05;;
73823;SDS011;62154;54.914;73.444;2022-11-11T10:25:25;39.80;;;19.08;;
73823;SDS011;62154;54.914;73.444;2022-11-11T10:28:16;44.58;;;20.20;;
73823;SDS011;62154;54.914;73.444;2022-11-11T10:31:04;40.15;;;22.67;;
73823;SDS011;62154;54.914;73.444;2022-11-11T10:33:58;32.47;;;17.20;;
73823;SDS011;62154;54.914;73.444;2022-11-11T10:36:49;37.42;;;19.63;;
73823;SDS011;62154;54.914;73.444;2022-11-11T10:42:44;61.08;;;32.67;;
73823;SDS011;62154;54.914;73.444;2022-11-11T10:45:41;100.25;;;54.55;;
73823;SDS011;62154;54.914;73.444;2022-11-11T10:48:40;48.72;;;28.25;;
73823;SDS011;62154;54.914;73.444;2022-11-11T10:51:48;72.60;;;41.00;;
73823;SDS011;62154;54.914;73.444;2022-11-11T10:57:50;30.55;;;17.77;;
73823;SDS011;62154;54.914;73.444;2022-11-11T11:00:47;33.65;;;18.27;;
73823;SDS011;62154;54.914;73.444;2022-11-11T11:03:37;92.97;;;42.90;;
73823;SDS011;62154;54.914;73.444;2022-11-11T11:06:27;68.80;;;30.05;;
73823;SDS011;62154;54.914;73.444;2022-11-11T11:09:22;64.03;;;27.67;;
73823;SDS011;62154;54.914;73.444;2022-11-11T11:12:37;80.88;;;32.83;;
73823;SDS011;62154;54.914;73.444;2022-11-11T11:15:40;58.55;;;25.85;;
73823;SDS011;62154;54.914;73.444;2022-11-11T11:18:32;104.57;;;37.58;;
73823;SDS011;62154;54.914;73.444;2022-11-11T11:21:18;101.10;;;37.00;;
73823;SDS011;62154;54.914;73.444;2022-11-11T11:24:03;74.35;;;32.30;;
73823;SDS011;62154;54.914;73.444;2022-11-11T11:27:05;93.88;;;39.67;;
73823;SDS011;62154;54.914;73.444;2022-11-11T11:29:52;65.63;;;25.45;;
73823;SDS011;62154;54.914;73.444;2022-11-11T11:32:39;63.75;;;23.60;;
73823;SDS011;62154;54.914;73.444;2022-11-11T11:35:32;44.40;;;18.55;;
73823;SDS011;62154;54.914;73.444;2022-11-11T11:38:25;51.65;;;21.33;;
73823;SDS011;62154;54.914;73.444;2022-11-11T11:41:35;48.88;;;20.98;;
73823;SDS011;62154;54.914;73.444;2022-11-11T11:44:30;58.50;;;23.23;;
73823;SDS011;62154;54.914;73.444;2022-11-11T11:50:45;40.10;;;19.25;;
73823;SDS011;62154;54.914;73.444;2022-11-11T11:57:55;52.03;;;22.67;;
73823;SDS011;62154;54.914;73.444;2022-11-11T12:00:36;44.45;;;21.95;;
73823;SDS011;62154;54.914;73.444;2022-11-11T12:06:58;51.15;;;22.60;;
73823;SDS011;62154;54.914;73.444;2022-11-11T12:10:07;57.17;;;22.98;;
73823;SDS011;62154;54.914;73.444;2022-11-11T12:13:04;54.53;;;21.02;;
73823;SDS011;62154;54.914;73.444;2022-11-11T12:18:49;59.55;;;20.92;;
73823;SDS011;62154;54.914;73.444;2022-11-11T12:22:06;49.53;;;22.50;;
73823;SDS011;62154;54.914;73.444;2022-11-11T12:26:00;58.67;;;22.67;;
73823;SDS011;62154;54.914;73.444;2022-11-11T12:28:42;58.35;;;21.48;;
73823;SDS011;62154;54.914;73.444;2022-11-11T12:40:43;74.05;;;29.98;;
73823;SDS011;62154;54.914;73.444;2022-11-11T12:53:29;67.88;;;21.88;;
73823;SDS011;62154;54.914;73.444;2022-11-11T12:59:39;91.63;;;22.30;;
73823;SDS011;62154;54.914;73.444;2022-11-11T13:12:33;121.13;;;26.25;;
73823;SDS011;62154;54.914;73.444;2022-11-11T13:15:47;93.90;;;22.70;;
73823;SDS011;62154;54.914;73.444;2022-11-11T13:22:01;67.80;;;20.83;;
73823;SDS011;62154;54.914;73.444;2022-11-11T13:25:10;72.40;;;19.73;;
73823;SDS011;62154;54.914;73.444;2022-11-11T13:28:08;101.30;;;24.63;;
73823;SDS011;62154;54.914;73.444;2022-11-11T13:31:18;114.70;;;27.38;;
73823;SDS011;62154;54.914;73.444;2022-11-11T13:34:12;60.38;;;18.10;;
73823;SDS011;62154;54.914;73.444;2022-11-11T13:37:00;159.80;;;28.80;;
73823;SDS011;62154;54.914;73.444;2022-11-11T13:39:50;54.60;;;19.63;;
73823;SDS011;62154;54.914;73.444;2022-11-11T13:42:40;82.38;;;26.83;;
73823;SDS011;62154;54.914;73.444;2022-11-11T13:45:36;69.50;;;20.50;;
73823;SDS011;62154;54.914;73.444;2022-11-11T13:48:35;136.93;;;42.65;;
73823;SDS011;62154;54.914;73.444;2022-11-11T13:51:38;129.95;;;47.63;;
73823;SDS011;62154;54.914;73.444;2022-11-11T13:54:36;199.20;;;68.63;;
73823;SDS011;62154;54.914;73.444;2022-11-11T13:57:43;220.68;;;72.25;;
73823;SDS011;62154;54.914;73.444;2022-11-11T14:00:36;286.33;;;111.30;;
73823;SDS011;62154;54.914;73.444;2022-11-11T14:12:43;65.28;;;28.77;;
73823;SDS011;62154;54.914;73.444;2022-11-11T14:15:44;81.50;;;35.78;;
73823;SDS011;62154;54.914;73.444;2022-11-11T14:18:44;92.63;;;42.10;;
73823;SDS011;62154;54.914;73.444;2022-11-11T14:21:50;91.28;;;44.28;;
73823;SDS011;62154;54.914;73.444;2022-11-11T14:24:51;99.82;;;47.13;;
73823;SDS011;62154;54.914;73.444;2022-11-11T14:27:36;146.25;;;59.88;;
73823;SDS011;62154;54.914;73.444;2022-11-11T14:30:35;140.88;;;56.50;;
73823;SDS011;62154;54.914;73.444;2022-11-11T14:51:37;75.00;;;42.70;;
73823;SDS011;62154;54.914;73.444;2022-11-11T14:54:33;88.50;;;47.67;;
73823;SDS011;62154;54.914;73.444;2022-11-11T14:57:50;53.08;;;30.25;;
73823;SDS011;62154;54.914;73.444;2022-11-11T15:03:41;47.85;;;25.83;;
73823;SDS011;62154;54.914;73.444;2022-11-11T15:06:36;90.97;;;48.38;;
73823;SDS011;62154;54.914;73.444;2022-11-11T15:09:48;52.30;;;34.38;;
73823;SDS011;62154;54.914;73.444;2022-11-11T15:28:29;25.40;;;14.93;;
73823;SDS011;62154;54.914;73.444;2022-11-11T15:34:56;19.00;;;11.25;;
73823;SDS011;62154;54.914;73.444;2022-11-11T15:37:58;21.58;;;12.77;;
73823;SDS011;62154;54.914;73.444;2022-11-11T15:40:52;25.13;;;13.48;;
73823;SDS011;62154;54.914;73.444;2022-11-11T15:43:44;22.98;;;12.10;;
73823;SDS011;62154;54.914;73.444;2022-11-11T15:46:31;24.35;;;12.52;;
73823;SDS011;62154;54.914;73.444;2022-11-11T15:49:39;18.33;;;10.15;;
73823;SDS011;62154;54.914;73.444;2022-11-11T15:52:31;20.38;;;9.02;;
73823;SDS011;62154;54.914;73.444;2022-11-11T15:55:33;15.02;;;9.07;;
73823;SDS011;62154;54.914;73.444;2022-11-11T15:58:27;22.13;;;10.85;;
73823;SDS011;62154;54.914;73.444;2022-11-11T16:01:14;15.27;;;9.65;;
73823;SDS011;62154;54.914;73.444;2022-11-11T16:04:01;18.10;;;10.32;;
73823;SDS011;62154;54.914;73.444;2022-11-11T16:06:52;32.25;;;18.48;;
73823;SDS011;62154;54.914;73.444;2022-11-11T16:09:42;46.72;;;23.38;;
73823;SDS011;62154;54.914;73.444;2022-11-11T16:12:32;63.47;;;30.48;;
73823;SDS011;62154;54.914;73.444;2022-11-11T16:15:46;163.40;;;74.43;;
73823;SDS011;62154;54.914;73.444;2022-11-11T16:18:51;24.42;;;15.52;;
73823;SDS011;62154;54.914;73.444;2022-11-11T16:21:43;22.83;;;13.60;;
73823;SDS011;62154;54.914;73.444;2022-11-11T16:24:47;27.52;;;19.13;;
73823;SDS011;62154;54.914;73.444;2022-11-11T16:27:33;38.50;;;26.55;;
73823;SDS011;62154;54.914;73.444;2022-11-11T16:30:29;36.90;;;21.95;;
73823;SDS011;62154;54.914;73.444;2022-11-11T16:36:11;21.35;;;11.50;;
73823;SDS011;62154;54.914;73.444;2022-11-11T16:39:12;19.27;;;11.23;;
73823;SDS011;62154;54.914;73.444;2022-11-11T16:42:26;19.63;;;10.05;;
73823;SDS011;62154;54.914;73.444;2022-11-11T16:45:19;22.40;;;11.82;;
73823;SDS011;62154;54.914;73.444;2022-11-11T16:48:33;20.52;;;9.82;;
73823;SDS011;62154;54.914;73.444;2022-11-11T16:51:40;22.95;;;11.65;;
73823;SDS011;62154;54.914;73.444;2022-11-11T16:54:39;21.83;;;10.68;;
73823;SDS011;62154;54.914;73.444;2022-11-11T17:00:26;29.23;;;13.45;;
73823;SDS011;62154;54.914;73.444;2022-11-11T17:03:21;17.75;;;8.68;;
73823;SDS011;62154;54.914;73.444;2022-11-11T17:06:11;23.92;;;11.80;;
73823;SDS011;62154;54.914;73.444;2022-11-11T17:08:57;19.77;;;10.80;;
73823;SDS011;62154;54.914;73.444;2022-11-11T17:11:52;21.63;;;10.63;;
73823;SDS011;62154;54.914;73.444;2022-11-11T17:14:38;18.73;;;9.07;;
73823;SDS011;62154;54.914;73.444;2022-11-11T17:17:31;29.48;;;13.23;;
73823;SDS011;62154;54.914;73.444;2022-11-11T17:20:18;40.47;;;16.60;;
73823;SDS011;62154;54.914;73.444;2022-11-11T17:23:12;26.77;;;12.68;;
73823;SDS011;62154;54.914;73.444;2022-11-11T17:25:58;20.25;;;10.98;;
73823;SDS011;62154;54.914;73.444;2022-11-11T17:28:44;25.17;;;12.18;;
73823;SDS011;62154;54.914;73.444;2022-11-11T17:31:42;22.48;;;10.23;;
73823;SDS011;62154;54.914;73.444;2022-11-11T17:34:28;18.42;;;8.98;;
73823;SDS011;62154;54.914;73.444;2022-11-11T17:37:14;19.52;;;9.38;;
73823;SDS011;62154;54.914;73.444;2022-11-11T17:40:00;19.42;;;8.98;;
73823;SDS011;62154;54.914;73.444;2022-11-11T17:42:46;20.00;;;11.07;;
73823;SDS011;62154;54.914;73.444;2022-11-11T17:45:37;19.92;;;11.38;;
73823;SDS011;62154;54.914;73.444;2022-11-11T17:51:08;17.90;;;9.07;;
73823;SDS011;62154;54.914;73.444;2022-11-11T17:54:06;18.48;;;8.20;;
73823;SDS011;62154;54.914;73.444;2022-11-11T17:56:53;17.25;;;9.55;;
73823;SDS011;62154;54.914;73.444;2022-11-11T17:59:49;17.70;;;8.52;;
73823;SDS011;62154;54.914;73.444;2022-11-11T18:02:34;37.25;;;18.67;;
73823;SDS011;62154;54.914;73.444;2022-11-11T18:05:32;17.50;;;9.57;;
73823;SDS011;62154;54.914;73.444;2022-11-11T18:08:28;13.38;;;6.60;;
73823;SDS011;62154;54.914;73.444;2022-11-11T18:11:25;14.40;;;8.02;;
73823;SDS011;62154;54.914;73.444;2022-11-11T18:14:10;15.90;;;9.30;;
73823;SDS011;62154;54.914;73.444;2022-11-11T18:16:55;24.17;;;12.75;;
73823;SDS011;62154;54.914;73.444;2022-11-11T18:19:42;16.17;;;8.73;;
73823;SDS011;62154;54.914;73.444;2022-11-11T18:25:16;16.58;;;8.68;;
73823;SDS011;62154;54.914;73.444;2022-11-11T18:28:01;40.33;;;17.98;;
73823;SDS011;62154;54.914;73.444;2022-11-11T18:31:01;15.75;;;8.85;;
73823;SDS011;62154;54.914;73.444;2022-11-11T18:33:47;14.57;;;7.85;;
73823;SDS011;62154;54.914;73.444;2022-11-11T18:36:34;18.65;;;9.77;;
73823;SDS011;62154;54.914;73.444;2022-11-11T18:39:22;14.02;;;7.45;;
73823;SDS011;62154;54.914;73.444;2022-11-11T18:42:09;49.33;;;21.60;;
73823;SDS011;62154;54.914;73.444;2022-11-11T18:44:55;17.60;;;10.77;;
73823;SDS011;62154;54.914;73.444;2022-11-11T18:47:40;14.48;;;9.05;;
73823;SDS011;62154;54.914;73.444;2022-11-11T18:50:36;14.52;;;8.48;;
73823;SDS011;62154;54.914;73.444;2022-11-11T18:53:32;19.73;;;9.23;;
73823;SDS011;62154;54.914;73.444;2022-11-11T18:56:20;11.15;;;7.05;;
73823;SDS011;62154;54.914;73.444;2022-11-11T18:59:19;23.13;;;12.18;;
73823;SDS011;62154;54.914;73.444;2022-11-11T19:02:10;16.23;;;7.90;;
73823;SDS011;62154;54.914;73.444;2022-11-11T19:04:58;13.90;;;8.75;;
73823;SDS011;62154;54.914;73.444;2022-11-11T19:07:46;12.55;;;7.70;;
73823;SDS011;62154;54.914;73.444;2022-11-11T19:10:37;16.67;;;7.07;;
73823;SDS011;62154;54.914;73.444;2022-11-11T19:13:28;11.25;;;6.07;;
73823;SDS011;62154;54.914;73.444;2022-11-11T19:16:15;16.73;;;8.70;;